sensor_id;sensor_type;location;lat;lon;timestamp;pressure;altitude;pressure_sealevel;temperature;humidity
32492;BME280;20605;49.742;18.802;2023-04-05T00:01:42;98295.55;;;-4.08;100.00
32492;BME280;20605;49.742;18.802;2023-04-05T00:04:08;98295.52;;;-4.04;100.00
32492;BME280;20605;49.742;18.802;2023-04-05T00:06:34;98290.52;;;-4.01;100.00
32492;BME280;20605;49.742;18.802;2023-04-05T00:09:03;98290.53;;;-4.01;100.00
32492;BME280;20605;49.742;18.802;2023-04-05T00:11:34;98290.32;;;-4.02;100.00
32492;BME280;20605;49.742;18.802;2023-04-05T00:14:02;98289.41;;;-4.04;100.00
32492;BME280;20605;49.742;18.802;2023-04-05T00:16:28;98287.91;;;-4.08;100.00
32492;BME280;20605;49.742;18.802;2023-04-05T00:18:58;98285.14;;;-4.15;100.00
32492;BME280;20605;49.742;18.802;2023-04-05T00:21:24;98289.64;;;-4.17;100.00
32492;BME280;20605;49.742;18.802;2023-04-05T00:23:52;98287.52;;;-4.20;100.00
32492;BME280;20605;49.742;18.802;2023-04-05T00:26:19;98285.87;;;-4.28;100.00
32492;BME280;20605;49.742;18.802;2023-04-05T00:28:47;98283.73;;;-4.36;100.00
32492;BME280;20605;49.742;18.802;2023-04-05T00:31:22;98285.83;;;-4.39;100.00
32492;BME280;20605;49.742;18.802;2023-04-05T00:33:48;98282.50;;;-4.42;100.00
32492;BME280;20605;49.742;18.802;2023-04-05T00:36:17;98282.58;;;-4.45;100.00
32492;BME280;20605;49.742;18.802;2023-04-05T00:38:44;98282.51;;;-4.42;100.00
32492;BME280;20605;49.742;18.802;2023-04-05T00:41:11;98282.79;;;-4.39;100.00
32492;BME280;20605;49.742;18.802;2023-04-05T00:43:38;98282.39;;;-4.41;100.00
32492;BME280;20605;49.742;18.802;2023-04-05T00:46:05;98282.81;;;-4.43;100.00
32492;BME280;20605;49.742;18.802;2023-04-05T00:48:32;98283.08;;;-4.45;100.00
32492;BME280;20605;49.742;18.802;2023-04-05T00:50:58;98282.85;;;-4.47;100.00
32492;BME280;20605;49.742;18.802;2023-04-05T00:53:24;98281.13;;;-4.52;100.00
32492;BME280;20605;49.742;18.802;2023-04-05T00:55:54;98279.92;;;-4.57;100.00
32492;BME280;20605;49.742;18.802;2023-04-05T00:58:21;98278.67;;;-4.60;100.00
32492;BME280;20605;49.742;18.802;2023-04-05T01:03:40;98277.84;;;-4.69;100.00
32492;BME280;20605;49.742;18.802;2023-04-05T01:06:16;98275.17;;;-4.72;100.00
32492;BME280;20605;49.742;18.802;2023-04-05T01:08:58;98272.63;;;-4.72;100.00
32492;BME280;20605;49.742;18.802;2023-04-05T01:11:25;98271.98;;;-4.72;100.00
32492;BME280;20605;49.742;18.802;2023-04-05T01:13:58;98269.62;;;-4.67;100.00
32492;BME280;20605;49.742;18.802;2023-04-05T01:16:24;98265.55;;;-4.67;100.00
32492;BME280;20605;49.742;18.802;2023-04-05T01:18:52;98266.90;;;-4.67;100.00
32492;BME280;20605;49.742;18.802;2023-04-05T01:32:14;98254.48;;;-4.73;100.00
32492;BME280;20605;49.742;18.802;2023-04-05T01:37:25;98249.10;;;-4.86;100.00
32492;BME280;20605;49.742;18.802;2023-04-05T01:39:54;98241.94;;;-4.97;100.00
32492;BME280;20605;49.742;18.802;2023-04-05T01:42:24;98242.80;;;-5.06;100.00
32492;BME280;20605;49.742;18.802;2023-04-05T01:44:51;98242.95;;;-5.07;100.00
32492;BME280;20605;49.742;18.802;2023-04-05T01:47:17;98244.95;;;-5.07;100.00
32492;BME280;20605;49.742;18.802;2023-04-05T01:49:43;98247.13;;;-5.08;100.00
32492;BME280;20605;49.742;18.802;2023-04-05T01:52:08;98247.98;;;-5.08;100.00
32492;BME280;20605;49.742;18.802;2023-04-05T01:54:34;98244.98;;;-5.07;100.00
32492;BME280;20605;49.742;18.802;2023-04-05T01:57:02;98244.42;;;-5.03;100.00
32492;BME280;20605;49.742;18.802;2023-04-05T01:59:28;98244.07;;;-5.04;100.00
32492;BME280;20605;49.742;18.802;2023-04-05T02:01:55;98243.67;;;-5.01;100.00
32492;BME280;20605;49.742;18.802;2023-04-05T02:04:20;98245.65;;;-4.97;100.00
32492;BME280;20605;49.742;18.802;2023-04-05T02:06:46;98240.48;;;-4.95;100.00
32492;BME280;20605;49.742;18.802;2023-04-05T02:09:12;98237.91;;;-4.96;100.00
32492;BME280;20605;49.742;18.802;2023-04-05T02:11:38;98237.52;;;-4.98;100.00
32492;BME280;20605;49.742;18.802;2023-04-05T02:14:04;98231.84;;;-5.05;100.00
32492;BME280;20605;49.742;18.802;2023-04-05T02:16:30;98236.59;;;-5.09;100.00
32492;BME280;20605;49.742;18.802;2023-04-05T02:18:58;98237.27;;;-5.09;100.00
32492;BME280;20605;49.742;18.802;2023-04-05T02:21:25;98234.98;;;-5.11;100.00
32492;BME280;20605;49.742;18.802;2023-04-05T02:23:52;98236.53;;;-5.10;100.00
32492;BME280;20605;49.742;18.802;2023-04-05T02:26:18;98241.70;;;-5.08;100.00
32492;BME280;20605;49.742;18.802;2023-04-05T02:28:44;98240.08;;;-5.06;100.00
32492;BME280;20605;49.742;18.802;2023-04-05T02:31:10;98234.98;;;-5.02;100.00
32492;BME280;20605;49.742;18.802;2023-04-05T02:33:39;98234.39;;;-5.00;100.00
32492;BME280;20605;49.742;18.802;2023-04-05T02:36:06;98235.71;;;-4.96;100.00
32492;BME280;20605;49.742;18.802;2023-04-05T02:38:34;98236.44;;;-4.95;100.00
32492;BME280;20605;49.742;18.802;2023-04-05T02:41:00;98233.60;;;-4.94;100.00
32492;BME280;20605;49.742;18.802;2023-04-05T02:43:27;98233.55;;;-4.90;100.00
32492;BME280;20605;49.742;18.802;2023-04-05T02:45:53;98233.52;;;-4.86;100.00
32492;BME280;20605;49.742;18.802;2023-04-05T02:48:19;98232.11;;;-4.83;100.00
32492;BME280;20605;49.742;18.802;2023-04-05T02:50:49;98236.11;;;-4.80;100.00
32492;BME280;20605;49.742;18.802;2023-04-05T02:53:18;98235.77;;;-4.75;100.00
32492;BME280;20605;49.742;18.802;2023-04-05T02:55:52;98234.66;;;-4.73;100.00
32492;BME280;20605;49.742;18.802;2023-04-05T02:58:19;98231.96;;;-4.73;100.00
32492;BME280;20605;49.742;18.802;2023-04-05T03:00:47;98227.34;;;-4.69;100.00
32492;BME280;20605;49.742;18.802;2023-04-05T03:03:20;98232.34;;;-4.71;100.00
32492;BME280;20605;49.742;18.802;2023-04-05T03:05:47;98231.58;;;-4.74;100.00
32492;BME280;20605;49.742;18.802;2023-04-05T03:08:15;98225.95;;;-4.80;100.00
32492;BME280;20605;49.742;18.802;2023-04-05T03:10:46;98223.55;;;-4.85;100.00
32492;BME280;20605;49.742;18.802;2023-04-05T03:13:20;98218.84;;;-4.85;100.00
32492;BME280;20605;49.742;18.802;2023-04-05T03:15:46;98216.66;;;-4.79;100.00
32492;BME280;20605;49.742;18.802;2023-04-05T03:18:14;98213.06;;;-4.71;100.00
32492;BME280;20605;49.742;18.802;2023-04-05T03:20:46;98201.81;;;-4.63;100.00
32492;BME280;20605;49.742;18.802;2023-04-05T03:23:17;98203.67;;;-4.53;100.00
32492;BME280;20605;49.742;18.802;2023-04-05T03:25:43;98208.44;;;-4.42;100.00
32492;BME280;20605;49.742;18.802;2023-04-05T03:28:09;98209.33;;;-4.31;100.00
32492;BME280;20605;49.742;18.802;2023-04-05T03:30:39;98209.28;;;-4.22;100.00
32492;BME280;20605;49.742;18.802;2023-04-05T03:33:13;98204.39;;;-4.11;100.00
32492;BME280;20605;49.742;18.802;2023-04-05T03:35:45;98202.91;;;-4.04;100.00
32492;BME280;20605;49.742;18.802;2023-04-05T03:38:12;98202.68;;;-3.95;100.00
32492;BME280;20605;49.742;18.802;2023-04-05T03:40:48;98205.84;;;-3.86;100.00
32492;BME280;20605;49.742;18.802;2023-04-05T03:43:14;98204.70;;;-3.79;100.00
32492;BME280;20605;49.742;18.802;2023-04-05T03:45:40;98205.52;;;-3.80;100.00
32492;BME280;20605;49.742;18.802;2023-04-05T03:48:06;98208.42;;;-3.84;100.00
32492;BME280;20605;49.742;18.802;2023-04-05T03:50:32;98211.22;;;-3.87;100.00
32492;BME280;20605;49.742;18.802;2023-04-05T03:52:58;98213.35;;;-3.84;100.00
32492;BME280;20605;49.742;18.802;2023-04-05T03:55:24;98213.86;;;-3.84;100.00
32492;BME280;20605;49.742;18.802;2023-04-05T03:57:51;98216.05;;;-3.90;100.00
32492;BME280;20605;49.742;18.802;2023-04-05T04:00:21;98217.92;;;-3.96;100.00
32492;BME280;20605;49.742;18.802;2023-04-05T04:03:02;98218.64;;;-4.00;100.00
32492;BME280;20605;49.742;18.802;2023-04-05T04:05:28;98221.63;;;-4.02;100.00
32492;BME280;20605;49.742;18.802;2023-04-05T04:07:56;98219.55;;;-4.03;100.00
32492;BME280;20605;49.742;18.802;2023-04-05T04:10:22;98216.34;;;-4.03;100.00
32492;BME280;20605;49.742;18.802;2023-04-05T04:12:51;98220.73;;;-4.04;100.00
32492;BME280;20605;49.742;18.802;2023-04-05T04:15:18;98218.58;;;-4.02;100.00
32492;BME280;20605;49.742;18.802;2023-04-05T04:18:14;98218.24;;;-3.96;100.00
32492;BME280;20605;49.742;18.802;2023-04-05T04:21:05;98216.77;;;-4.00;100.00
32492;BME280;20605;49.742;18.802;2023-04-05T04:23:48;98218.58;;;-4.07;100.00
32492;BME280;20605;49.742;18.802;2023-04-05T04:26:33;98220.58;;;-4.13;100.00
32492;BME280;20605;49.742;18.802;2023-04-05T04:29:22;98225.39;;;-4.17;100.00
32492;BME280;20605;49.742;18.802;2023-04-05T04:32:17;98223.79;;;-4.14;100.00
32492;BME280;20605;49.742;18.802;2023-04-05T04:35:12;98222.16;;;-4.12;100.00
32492;BME280;20605;49.742;18.802;2023-04-05T04:38:01;98222.10;;;-4.14;100.00
32492;BME280;20605;49.742;18.802;2023-04-05T04:41:05;98223.33;;;-4.12;100.00
32492;BME280;20605;49.742;18.802;2023-04-05T04:44:02;98223.95;;;-4.09;100.00
32492;BME280;20605;49.742;18.802;2023-04-05T04:46:34;98221.64;;;-4.07;100.00
32492;BME280;20605;49.742;18.802;2023-04-05T04:49:18;98221.36;;;-4.05;100.00
32492;BME280;20605;49.742;18.802;2023-04-05T04:51:47;98218.27;;;-4.01;100.00
32492;BME280;20605;49.742;18.802;2023-04-05T04:54:13;98214.46;;;-3.93;100.00
32492;BME280;20605;49.742;18.802;2023-04-05T04:56:41;98210.48;;;-3.83;100.00
32492;BME280;20605;49.742;18.802;2023-04-05T04:59:07;98217.65;;;-3.71;100.00
32492;BME280;20605;49.742;18.802;2023-04-05T05:01:33;98215.85;;;-3.63;100.00
32492;BME280;20605;49.742;18.802;2023-04-05T05:04:02;98216.59;;;-3.50;100.00
32492;BME280;20605;49.742;18.802;2023-04-05T05:06:31;98217.86;;;-3.30;100.00
32492;BME280;20605;49.742;18.802;2023-04-05T05:08:56;98216.48;;;-3.08;100.00
32492;BME280;20605;49.742;18.802;2023-04-05T05:11:24;98215.31;;;-2.83;100.00
32492;BME280;20605;49.742;18.802;2023-04-05T05:13:50;98213.65;;;-2.62;100.00
32492;BME280;20605;49.742;18.802;2023-04-05T05:16:19;98217.79;;;-2.46;100.00
32492;BME280;20605;49.742;18.802;2023-04-05T05:18:47;98220.14;;;-2.28;100.00
32492;BME280;20605;49.742;18.802;2023-04-05T05:21:17;98226.10;;;-2.20;100.00
32492;BME280;20605;49.742;18.802;2023-04-05T05:23:50;98229.09;;;-2.17;100.00
32492;BME280;20605;49.742;18.802;2023-04-05T05:26:16;98234.05;;;-2.09;100.00
32492;BME280;20605;49.742;18.802;2023-04-05T05:28:42;98228.27;;;-2.03;100.00
32492;BME280;20605;49.742;18.802;2023-04-05T05:31:08;98230.11;;;-2.03;100.00
32492;BME280;20605;49.742;18.802;2023-04-05T05:33:36;98231.17;;;-2.15;100.00
32492;BME280;20605;49.742;18.802;2023-04-05T05:36:02;98227.35;;;-2.25;100.00
32492;BME280;20605;49.742;18.802;2023-04-05T05:38:28;98222.68;;;-2.28;100.00
32492;BME280;20605;49.742;18.802;2023-04-05T05:40:55;98211.04;;;-2.18;100.00
32492;BME280;20605;49.742;18.802;2023-04-05T05:43:21;98206.95;;;-1.60;100.00
32492;BME280;20605;49.742;18.802;2023-04-05T05:45:47;98204.63;;;-0.92;100.00
32492;BME280;20605;49.742;18.802;2023-04-05T05:48:13;98206.03;;;-0.15;100.00
32492;BME280;20605;49.742;18.802;2023-04-05T05:50:39;98205.52;;;0.51;100.00
32492;BME280;20605;49.742;18.802;2023-04-05T05:53:05;98208.19;;;1.42;100.00
32492;BME280;20605;49.742;18.802;2023-04-05T05:55:30;98211.63;;;2.16;100.00
32492;BME280;20605;49.742;18.802;2023-04-05T05:57:57;98210.64;;;3.12;100.00
32492;BME280;20605;49.742;18.802;2023-04-05T06:00:23;98204.30;;;4.43;100.00
32492;BME280;20605;49.742;18.802;2023-04-05T06:02:49;98199.61;;;5.91;99.73
32492;BME280;20605;49.742;18.802;2023-04-05T06:05:14;98197.77;;;6.98;98.07
32492;BME280;20605;49.742;18.802;2023-04-05T06:07:40;98182.28;;;7.24;94.30
32492;BME280;20605;49.742;18.802;2023-04-05T06:10:07;98185.25;;;6.41;89.10
32492;BME280;20605;49.742;18.802;2023-04-05T06:12:33;98183.23;;;5.67;91.67
32492;BME280;20605;49.742;18.802;2023-04-05T06:15:00;98185.06;;;5.47;92.61
32492;BME280;20605;49.742;18.802;2023-04-05T06:17:26;98189.33;;;5.53;93.46
32492;BME280;20605;49.742;18.802;2023-04-05T06:19:51;98195.28;;;5.95;92.76
32492;BME280;20605;49.742;18.802;2023-04-05T06:22:17;98192.67;;;6.42;91.37
32492;BME280;20605;49.742;18.802;2023-04-05T06:24:44;98194.27;;;6.55;89.85
32492;BME280;20605;49.742;18.802;2023-04-05T06:27:09;98191.99;;;7.07;88.27
32492;BME280;20605;49.742;18.802;2023-04-05T06:29:37;98186.83;;;7.20;88.60
32492;BME280;20605;49.742;18.802;2023-04-05T06:32:03;98185.23;;;7.09;87.33
32492;BME280;20605;49.742;18.802;2023-04-05T06:34:28;98190.30;;;6.88;86.55
32492;BME280;20605;49.742;18.802;2023-04-05T06:36:54;98191.92;;;6.82;86.34
32492;BME280;20605;49.742;18.802;2023-04-05T06:39:22;98193.39;;;6.41;84.87
32492;BME280;20605;49.742;18.802;2023-04-05T06:41:47;98197.67;;;6.24;83.44
32492;BME280;20605;49.742;18.802;2023-04-05T06:44:13;98193.51;;;6.06;83.64
32492;BME280;20605;49.742;18.802;2023-04-05T06:46:39;98192.17;;;5.97;84.07
32492;BME280;20605;49.742;18.802;2023-04-05T06:49:04;98195.55;;;5.78;83.77
32492;BME280;20605;49.742;18.802;2023-04-05T06:51:30;98197.30;;;5.76;83.68
32492;BME280;20605;49.742;18.802;2023-04-05T06:53:56;98197.86;;;5.67;82.84
32492;BME280;20605;49.742;18.802;2023-04-05T06:56:22;98199.81;;;5.56;82.55
32492;BME280;20605;49.742;18.802;2023-04-05T06:58:48;98203.00;;;5.38;82.60
32492;BME280;20605;49.742;18.802;2023-04-05T07:01:15;98203.77;;;5.25;82.72
32492;BME280;20605;49.742;18.802;2023-04-05T07:03:41;98204.69;;;5.80;82.60
32492;BME280;20605;49.742;18.802;2023-04-05T07:06:07;98204.45;;;6.71;82.44
32492;BME280;20605;49.742;18.802;2023-04-05T07:08:34;98200.34;;;8.26;80.69
32492;BME280;20605;49.742;18.802;2023-04-05T07:11:00;98200.98;;;9.81;79.15
32492;BME280;20605;49.742;18.802;2023-04-05T07:13:26;98198.88;;;10.89;80.55
32492;BME280;20605;49.742;18.802;2023-04-05T07:15:59;98194.48;;;11.82;76.75
32492;BME280;20605;49.742;18.802;2023-04-05T07:18:25;98193.69;;;12.30;73.83
32492;BME280;20605;49.742;18.802;2023-04-05T07:20:51;98196.99;;;11.80;74.16
32492;BME280;20605;49.742;18.802;2023-04-05T07:23:19;98205.52;;;11.14;72.45
32492;BME280;20605;49.742;18.802;2023-04-05T07:25:45;98208.92;;;10.29;71.92
32492;BME280;20605;49.742;18.802;2023-04-05T07:28:11;98207.36;;;9.43;71.47
32492;BME280;20605;49.742;18.802;2023-04-05T07:30:37;98211.65;;;8.55;70.71
32492;BME280;20605;49.742;18.802;2023-04-05T07:33:02;98212.38;;;7.86;70.56
32492;BME280;20605;49.742;18.802;2023-04-05T07:35:28;98216.05;;;7.31;71.07
32492;BME280;20605;49.742;18.802;2023-04-05T07:37:55;98219.98;;;7.07;72.18
32492;BME280;20605;49.742;18.802;2023-04-05T07:40:20;98211.49;;;7.97;72.85
32492;BME280;20605;49.742;18.802;2023-04-05T07:42:46;98207.67;;;9.77;71.75
32492;BME280;20605;49.742;18.802;2023-04-05T07:45:12;98211.05;;;10.42;70.84
32492;BME280;20605;49.742;18.802;2023-04-05T07:47:38;98209.35;;;10.54;68.72
32492;BME280;20605;49.742;18.802;2023-04-05T07:50:04;98211.22;;;10.41;68.76
32492;BME280;20605;49.742;18.802;2023-04-05T07:52:31;98205.95;;;10.23;68.19
32492;BME280;20605;49.742;18.802;2023-04-05T07:54:57;98204.34;;;9.95;68.26
32492;BME280;20605;49.742;18.802;2023-04-05T07:57:23;98206.02;;;9.49;67.30
32492;BME280;20605;49.742;18.802;2023-04-05T07:59:49;98202.92;;;8.97;67.78
32492;BME280;20605;49.742;18.802;2023-04-05T08:02:19;98204.70;;;8.77;68.08
32492;BME280;20605;49.742;18.802;2023-04-05T08:04:45;98202.29;;;9.29;68.73
32492;BME280;20605;49.742;18.802;2023-04-05T08:07:10;98199.80;;;10.18;68.33
32492;BME280;20605;49.742;18.802;2023-04-05T08:09:36;98198.06;;;11.72;67.90
32492;BME280;20605;49.742;18.802;2023-04-05T08:12:02;98188.55;;;13.69;67.07
32492;BME280;20605;49.742;18.802;2023-04-05T08:14:28;98188.38;;;15.15;64.52
32492;BME280;20605;49.742;18.802;2023-04-05T08:16:54;98185.94;;;16.28;64.57
32492;BME280;20605;49.742;18.802;2023-04-05T08:19:20;98185.13;;;17.60;61.91
32492;BME280;20605;49.742;18.802;2023-04-05T08:21:45;98183.80;;;18.65;60.40
32492;BME280;20605;49.742;18.802;2023-04-05T08:24:11;98174.98;;;19.07;59.01
32492;BME280;20605;49.742;18.802;2023-04-05T08:26:37;98169.49;;;19.40;57.56
32492;BME280;20605;49.742;18.802;2023-04-05T08:29:03;98177.38;;;19.60;56.36
32492;BME280;20605;49.742;18.802;2023-04-05T08:31:28;98171.38;;;19.91;55.32
32492;BME280;20605;49.742;18.802;2023-04-05T08:33:54;98170.14;;;20.10;54.58
32492;BME280;20605;49.742;18.802;2023-04-05T08:36:20;98170.70;;;20.37;53.89
32492;BME280;20605;49.742;18.802;2023-04-05T08:38:45;98170.00;;;21.03;53.17
32492;BME280;20605;49.742;18.802;2023-04-05T08:41:18;98169.11;;;21.13;49.21
32492;BME280;20605;49.742;18.802;2023-04-05T08:44:01;98166.39;;;21.14;49.72
32492;BME280;20605;49.742;18.802;2023-04-05T08:46:32;98165.42;;;21.36;47.84
32492;BME280;20605;49.742;18.802;2023-04-05T08:48:59;98168.59;;;21.94;49.08
32492;BME280;20605;49.742;18.802;2023-04-05T08:51:26;98167.05;;;21.80;44.59
32492;BME280;20605;49.742;18.802;2023-04-05T08:53:53;98161.08;;;22.07;47.99
32492;BME280;20605;49.742;18.802;2023-04-05T08:56:24;98163.30;;;22.53;46.62
32492;BME280;20605;49.742;18.802;2023-04-05T08:59:06;98157.66;;;22.86;45.30
32492;BME280;20605;49.742;18.802;2023-04-05T09:01:36;98161.36;;;22.39;45.11
32492;BME280;20605;49.742;18.802;2023-04-05T09:04:08;98153.89;;;21.19;43.76
32492;BME280;20605;49.742;18.802;2023-04-05T09:06:37;98154.25;;;20.10;42.45
32492;BME280;20605;49.742;18.802;2023-04-05T09:09:06;98159.18;;;18.16;42.83
32492;BME280;20605;49.742;18.802;2023-04-05T09:11:36;98160.94;;;16.65;42.84
32492;BME280;20605;49.742;18.802;2023-04-05T09:14:03;98165.44;;;15.27;42.76
32492;BME280;20605;49.742;18.802;2023-04-05T09:16:38;98166.70;;;13.80;43.57
32492;BME280;20605;49.742;18.802;2023-04-05T09:19:06;98169.58;;;12.53;44.12
32492;BME280;20605;49.742;18.802;2023-04-05T09:24:38;98165.85;;;14.40;47.27
32492;BME280;20605;49.742;18.802;2023-04-05T09:27:07;98161.06;;;16.17;46.31
32492;BME280;20605;49.742;18.802;2023-04-05T09:29:33;98164.45;;;17.75;44.99
32492;BME280;20605;49.742;18.802;2023-04-05T09:32:03;98159.84;;;18.18;43.83
32492;BME280;20605;49.742;18.802;2023-04-05T09:34:30;98157.30;;;18.61;43.67
32492;BME280;20605;49.742;18.802;2023-04-05T09:37:01;98149.63;;;19.72;43.66
32492;BME280;20605;49.742;18.802;2023-04-05T09:39:31;98151.06;;;20.30;40.11
32492;BME280;20605;49.742;18.802;2023-04-05T09:42:12;98150.29;;;20.42;40.99
32492;BME280;20605;49.742;18.802;2023-04-05T09:47:15;98138.87;;;20.06;42.07
32492;BME280;20605;49.742;18.802;2023-04-05T09:49:44;98138.79;;;19.38;40.73
32492;BME280;20605;49.742;18.802;2023-04-05T09:52:20;98136.14;;;18.77;40.99
32492;BME280;20605;49.742;18.802;2023-04-05T09:54:46;98136.77;;;17.48;39.50
32492;BME280;20605;49.742;18.802;2023-04-05T09:57:14;98140.52;;;15.81;38.96
32492;BME280;20605;49.742;18.802;2023-04-05T09:59:45;98140.80;;;14.59;40.49
32492;BME280;20605;49.742;18.802;2023-04-05T10:02:11;98141.20;;;13.44;40.78
32492;BME280;20605;49.742;18.802;2023-04-05T10:04:41;98141.98;;;12.24;41.25
32492;BME280;20605;49.742;18.802;2023-04-05T10:07:10;98143.70;;;11.42;42.79
32492;BME280;20605;49.742;18.802;2023-04-05T10:09:41;98151.19;;;10.73;43.48
32492;BME280;20605;49.742;18.802;2023-04-05T10:12:09;98147.52;;;10.07;44.50
32492;BME280;20605;49.742;18.802;2023-04-05T10:14:36;98147.31;;;9.55;45.45
32492;BME280;20605;49.742;18.802;2023-04-05T10:17:38;98147.60;;;9.00;45.82
32492;BME280;20605;49.742;18.802;2023-04-05T10:20:18;98146.01;;;8.17;47.29
32492;BME280;20605;49.742;18.802;2023-04-05T10:22:51;98143.79;;;7.72;48.34
32492;BME280;20605;49.742;18.802;2023-04-05T10:28:42;98139.10;;;7.11;50.53
32492;BME280;20605;49.742;18.802;2023-04-05T10:31:24;98134.79;;;6.97;51.40
32492;BME280;20605;49.742;18.802;2023-04-05T10:34:05;98129.26;;;6.98;51.76
32492;BME280;20605;49.742;18.802;2023-04-05T10:36:49;98132.86;;;7.13;53.42
32492;BME280;20605;49.742;18.802;2023-04-05T10:39:39;98129.33;;;7.19;52.73
32492;BME280;20605;49.742;18.802;2023-04-05T10:42:12;98131.19;;;6.80;52.78
32492;BME280;20605;49.742;18.802;2023-04-05T10:44:46;98129.89;;;6.57;53.80
32492;BME280;20605;49.742;18.802;2023-04-05T10:47:18;98123.02;;;6.55;53.83
32492;BME280;20605;49.742;18.802;2023-04-05T10:49:52;98120.90;;;6.74;52.74
32492;BME280;20605;49.742;18.802;2023-04-05T10:52:18;98113.91;;;6.96;52.34
32492;BME280;20605;49.742;18.802;2023-04-05T10:54:48;98115.04;;;6.88;52.23
32492;BME280;20605;49.742;18.802;2023-04-05T10:57:14;98118.25;;;6.80;52.50
32492;BME280;20605;49.742;18.802;2023-04-05T10:59:45;98121.08;;;6.73;52.58
32492;BME280;20605;49.742;18.802;2023-04-05T11:02:13;98119.60;;;6.66;52.46
32492;BME280;20605;49.742;18.802;2023-04-05T11:04:39;98120.88;;;6.45;52.27
32492;BME280;20605;49.742;18.802;2023-04-05T11:07:16;98124.10;;;6.18;52.80
32492;BME280;20605;49.742;18.802;2023-04-05T11:09:58;98121.54;;;5.94;53.28
32492;BME280;20605;49.742;18.802;2023-04-05T11:13:01;98119.58;;;5.77;53.26
32492;BME280;20605;49.742;18.802;2023-04-05T11:15:28;98119.59;;;5.76;52.53
32492;BME280;20605;49.742;18.802;2023-04-05T11:21:06;98117.39;;;5.96;53.12
32492;BME280;20605;49.742;18.802;2023-04-05T11:24:05;98117.87;;;6.19;52.88
32492;BME280;20605;49.742;18.802;2023-04-05T11:26:51;98116.38;;;6.47;53.20
32492;BME280;20605;49.742;18.802;2023-04-05T11:29:44;98120.44;;;6.53;52.86
32492;BME280;20605;49.742;18.802;2023-04-05T11:32:12;98119.27;;;6.66;53.37
32492;BME280;20605;49.742;18.802;2023-04-05T11:34:41;98114.34;;;6.74;52.90
32492;BME280;20605;49.742;18.802;2023-04-05T11:37:08;98114.79;;;6.66;52.97
32492;BME280;20605;49.742;18.802;2023-04-05T11:39:33;98112.59;;;6.61;52.81
32492;BME280;20605;49.742;18.802;2023-04-05T11:42:21;98112.27;;;6.59;53.03
32492;BME280;20605;49.742;18.802;2023-04-05T11:44:49;98106.84;;;6.67;53.32
32492;BME280;20605;49.742;18.802;2023-04-05T11:47:18;98105.23;;;6.87;53.12
32492;BME280;20605;49.742;18.802;2023-04-05T11:49:51;98105.39;;;7.01;53.49
32492;BME280;20605;49.742;18.802;2023-04-05T11:52:19;98097.09;;;7.14;52.69
32492;BME280;20605;49.742;18.802;2023-04-05T11:54:45;98101.36;;;7.18;53.10
32492;BME280;20605;49.742;18.802;2023-04-05T11:57:13;98104.86;;;7.15;52.13
32492;BME280;20605;49.742;18.802;2023-04-05T11:59:41;98103.17;;;6.84;52.02
32492;BME280;20605;49.742;18.802;2023-04-05T12:02:07;98104.81;;;6.62;52.15
32492;BME280;20605;49.742;18.802;2023-04-05T12:04:34;98100.21;;;6.58;52.84
32492;BME280;20605;49.742;18.802;2023-04-05T12:07:30;98100.66;;;6.64;53.51
32492;BME280;20605;49.742;18.802;2023-04-05T12:10:05;98101.70;;;6.78;53.31
32492;BME280;20605;49.742;18.802;2023-04-05T12:12:41;98100.02;;;6.73;52.52
32492;BME280;20605;49.742;18.802;2023-04-05T12:15:11;98099.74;;;6.53;53.23
32492;BME280;20605;49.742;18.802;2023-04-05T12:17:47;98094.23;;;6.52;53.80
32492;BME280;20605;49.742;18.802;2023-04-05T12:20:22;98093.42;;;6.63;54.13
32492;BME280;20605;49.742;18.802;2023-04-05T12:22:54;98089.77;;;6.66;52.57
32492;BME280;20605;49.742;18.802;2023-04-05T12:25:21;98086.50;;;6.65;52.19
32492;BME280;20605;49.742;18.802;2023-04-05T12:27:47;98078.30;;;6.72;52.68
32492;BME280;20605;49.742;18.802;2023-04-05T12:30:17;98086.98;;;6.67;52.60
32492;BME280;20605;49.742;18.802;2023-04-05T12:32:47;98086.91;;;6.46;52.74
32492;BME280;20605;49.742;18.802;2023-04-05T12:35:18;98084.48;;;6.31;52.74
32492;BME280;20605;49.742;18.802;2023-04-05T12:37:44;98086.53;;;6.15;53.40
32492;BME280;20605;49.742;18.802;2023-04-05T12:40:12;98084.30;;;6.15;53.83
32492;BME280;20605;49.742;18.802;2023-04-05T12:42:39;98086.92;;;6.10;53.03
32492;BME280;20605;49.742;18.802;2023-04-05T12:45:10;98085.34;;;5.95;53.46
32492;BME280;20605;49.742;18.802;2023-04-05T12:47:49;98081.57;;;5.92;53.20
32492;BME280;20605;49.742;18.802;2023-04-05T12:50:17;98080.35;;;5.94;53.19
32492;BME280;20605;49.742;18.802;2023-04-05T12:52:53;98079.11;;;5.97;53.62
32492;BME280;20605;49.742;18.802;2023-04-05T12:55:20;98079.04;;;6.05;53.27
32492;BME280;20605;49.742;18.802;2023-04-05T12:57:50;98079.88;;;6.07;53.42
32492;BME280;20605;49.742;18.802;2023-04-05T13:00:17;98079.70;;;6.08;53.23
32492;BME280;20605;49.742;18.802;2023-04-05T13:02:50;98080.27;;;6.04;53.36
32492;BME280;20605;49.742;18.802;2023-04-05T13:05:23;98077.03;;;5.99;53.51
32492;BME280;20605;49.742;18.802;2023-04-05T13:07:50;98076.67;;;6.02;54.10
32492;BME280;20605;49.742;18.802;2023-04-05T13:10:18;98076.14;;;6.03;53.90
32492;BME280;20605;49.742;18.802;2023-04-05T13:12:45;98076.48;;;6.04;54.28
32492;BME280;20605;49.742;18.802;2023-04-05T13:15:11;98075.39;;;6.09;54.46
32492;BME280;20605;49.742;18.802;2023-04-05T13:17:39;98076.65;;;6.03;54.02
32492;BME280;20605;49.742;18.802;2023-04-05T13:20:07;98081.39;;;5.92;54.32
32492;BME280;20605;49.742;18.802;2023-04-05T13:22:33;98081.41;;;5.86;53.86
32492;BME280;20605;49.742;18.802;2023-04-05T13:24:58;98084.01;;;5.85;54.21
32492;BME280;20605;49.742;18.802;2023-04-05T13:27:24;98081.42;;;5.85;54.25
32492;BME280;20605;49.742;18.802;2023-04-05T13:29:50;98082.13;;;6.06;54.75
32492;BME280;20605;49.742;18.802;2023-04-05T13:32:16;98076.66;;;6.37;54.72